Stella, NC (28582)

11:45 AM EDT on July 31, 2015 (GMT -0400)
Marsh Harbor | | Change Station
CLOSE
Current Station
Personal Weather Station
Location: Cedar Point, NC
Elevation: 12 ft
Nearby Weather Stations

Elev 12 ft 34.69 °N, 77.08 °W | Updated 5 seconds ago

Partly Cloudy
Partly Cloudy
87.3 °F
Feels Like 102 °F
N
2.0
Wind Variable Wind from NNE
Gusts 4.0 mph

Today
High -- | Low -- °F
--% Chance of Precip.
Yesterday
High -- | Low -- °F
Precip. -- in
6:17 AM 8:11 PM
Full, 100% visible
Pressure 29.91 in
Visibility 10.0 miles
Clouds Few 1700 ft
Heat Index 102 °F
Dew Point 79 °F
Humidity 76%
Rainfall 0.00 in
Snow Depth Not available.
UV 8 out of 12
Pollen 3.30 out of 12
Air Quality Not available.
Flu Activity Not available.
METAR KNJM 311457Z AUTO VRB06KT 10SM FEW017 31/24 A2990 RMK AO2 SLP128 T03060244 58003

More Conditions Fewer Conditions

Pressure 29.91 in
Visibility 10.0 miles
Clouds Few 1700 ft
Heat Index 102 °F
Dew Point 79 °F
Humidity 76%
Rainfall 0.00 in
Snow Depth Not available.
UV 8 out of 12
Pollen 3.30 out of 12
Air Quality Not available.
Flu Activity Not available.
METAR KNJM 311457Z AUTO VRB06KT 10SM FEW017 31/24 A2990 RMK AO2 SLP128 T03060244 58003

More Conditions Fewer Conditions

10-Day Weather Forecast

×

Almanac

Astronomy

Jul. 31, 2015 Rise Set
Actual Time
Civil Twilight
Nautical Twilight
Astronomical Twilight
Moon
Length of Visible Light
Length of Day
Tomorrow will be .
, % of the Moon is Illuminated

Today's Extremes

State Highs State Lows

Community

WunderPhotos

Upload Photos

1,842,685 photos uploaded!

WunderBlogs® & News

Nearby

Air Quality

  Air Quality AQ Index Pollutant
Not available.

Snow Depth

Station Depth Elevation

Earthquake Activity

City Distance Mag. Time & Date
Minimum magnitude displayed is 2.5.

Coastal Water Temperatures

Place Temperature

Stations

Nearby Weather Stations

Station Location Temp. Windchill Dew Point Humidity Wind Precip. Elev Updated Type